createdAt,value
2023-07-25T00:02:09.700Z,99241.13
2023-07-25T00:04:37.749Z,99243.22
2023-07-25T00:07:06.179Z,99248.91
2023-07-25T00:09:34.199Z,99255.94
2023-07-25T00:12:03.537Z,99243.13
2023-07-25T00:14:32.211Z,99253.59
2023-07-25T00:17:00.208Z,99252.66
2023-07-25T00:19:28.637Z,99250.19
2023-07-25T00:21:56.686Z,99246.47
2023-07-25T00:24:24.953Z,99246.81
2023-07-25T00:26:52.981Z,99251.59
2023-07-25T00:29:22.349Z,99244.91
2023-07-25T00:31:50.382Z,99248.56
2023-07-25T00:34:18.415Z,99249.44
2023-07-25T00:36:46.421Z,99250.28
2023-07-25T00:39:14.497Z,99254.50
2023-07-25T00:41:42.666Z,99255.63
2023-07-25T00:44:10.900Z,99257.50
2023-07-25T00:46:40.311Z,99257.66
2023-07-25T00:49:08.358Z,99257.06
2023-07-25T00:51:36.589Z,99258.50
2023-07-25T00:54:04.705Z,99257.66
2023-07-25T00:56:33.508Z,99264.22
2023-07-25T00:59:01.452Z,99250.56
2023-07-25T01:01:30.421Z,99261.81
2023-07-25T01:04:00.170Z,99263.00
2023-07-25T01:06:29.073Z,99255.75
2023-07-25T01:08:58.482Z,99237.16
2023-07-25T01:11:26.941Z,99233.44
2023-07-25T01:13:54.929Z,99255.50
2023-07-25T01:16:26.080Z,99251.41
2023-07-25T01:18:55.093Z,99268.00
2023-07-25T01:21:25.083Z,99263.72
2023-07-25T01:23:53.163Z,99258.47
2023-07-25T01:26:24.987Z,99260.84
2023-07-25T01:28:52.975Z,99260.16
2023-07-25T01:31:20.922Z,99260.47
2023-07-25T01:33:48.959Z,99259.09
2023-07-25T01:36:17.004Z,99253.25
2023-07-25T01:38:45.036Z,99260.59
2023-07-25T01:41:12.933Z,99261.25
2023-07-25T01:43:42.376Z,99258.75
2023-07-25T01:46:10.436Z,99258.16
2023-07-25T01:48:38.401Z,99268.53
2023-07-25T01:51:06.359Z,99260.34
2023-07-25T01:53:34.316Z,99265.03
2023-07-25T01:56:02.553Z,99258.91
2023-07-25T01:58:30.507Z,99253.47
2023-07-25T02:01:00.666Z,99260.00
2023-07-25T02:03:30.160Z,99265.16
2023-07-25T02:05:58.198Z,99264.91
2023-07-25T02:08:26.136Z,99266.78
2023-07-25T02:10:54.078Z,99273.44
2023-07-25T02:13:22.108Z,99268.28
2023-07-25T02:15:50.041Z,99272.72
2023-07-25T02:18:19.407Z,99275.41
2023-07-25T02:20:47.439Z,99271.09
2023-07-25T02:23:15.404Z,99280.22
2023-07-25T02:25:43.446Z,99272.78
2023-07-25T02:28:11.522Z,99271.53
2023-07-25T02:30:39.468Z,99273.09
2023-07-25T02:33:07.474Z,99272.88
2023-07-25T02:35:36.883Z,99271.00
2023-07-25T02:38:04.832Z,99276.88
2023-07-25T02:40:32.757Z,99271.34
2023-07-25T02:43:01.059Z,99268.59
2023-07-25T02:45:29.102Z,99272.25
2023-07-25T02:47:57.182Z,99280.56
2023-07-25T02:50:25.154Z,99267.91
2023-07-25T02:52:54.627Z,99274.50
2023-07-25T02:55:22.773Z,99280.50
2023-07-25T02:57:50.702Z,99278.69
2023-07-25T03:00:18.723Z,99273.19
2023-07-25T03:02:46.734Z,99282.22
2023-07-25T03:05:16.389Z,99277.44
2023-07-25T03:07:44.525Z,99287.41
2023-07-25T03:10:13.847Z,99288.94
2023-07-25T03:12:41.980Z,99289.34
2023-07-25T03:15:10.481Z,99280.91
2023-07-25T03:17:38.873Z,99289.97
2023-07-25T03:20:08.529Z,99293.53
2023-07-25T03:22:36.676Z,99293.88
2023-07-25T03:25:04.625Z,99291.75
2023-07-25T03:27:34.206Z,99296.97
2023-07-25T03:30:02.146Z,99301.28
2023-07-25T03:32:30.241Z,99284.69
2023-07-25T03:34:58.450Z,99308.63
2023-07-25T03:37:26.501Z,99294.31
2023-07-25T03:39:54.451Z,99286.25
2023-07-25T03:42:22.552Z,99298.97
2023-07-25T03:44:52.971Z,99300.50
2023-07-25T03:47:20.892Z,99297.56
2023-07-25T03:49:48.924Z,99291.03
2023-07-25T03:52:16.858Z,99289.53
2023-07-25T03:54:44.851Z,99291.25
2023-07-25T03:57:12.837Z,99283.16
2023-07-25T03:59:40.878Z,99292.59
2023-07-25T04:02:10.471Z,99282.78
2023-07-25T04:04:38.669Z,99289.56
2023-07-25T04:07:07.643Z,99293.88
2023-07-25T04:09:35.622Z,99298.19
2023-07-25T04:12:03.589Z,99298.19
2023-07-25T04:14:31.462Z,99285.69
2023-07-25T04:16:59.485Z,99292.59
2023-07-25T04:19:28.877Z,99294.94
2023-07-25T04:21:56.836Z,99297.31
2023-07-25T04:24:24.816Z,99301.88
2023-07-25T04:26:52.867Z,99292.75
2023-07-25T04:29:20.870Z,99300.50
2023-07-25T04:31:50.083Z,99299.19
2023-07-25T04:34:18.049Z,99304.06
2023-07-25T04:36:47.385Z,99313.50
2023-07-25T04:39:15.456Z,99291.25
2023-07-25T04:41:43.398Z,99293.19
2023-07-25T04:44:11.366Z,99304.19
2023-07-25T04:46:39.296Z,99305.66
2023-07-25T04:49:08.047Z,99303.75
2023-07-25T04:51:36.082Z,99293.53
2023-07-25T04:54:05.525Z,99302.56
2023-07-25T04:56:33.622Z,99303.78
2023-07-25T04:59:01.760Z,99299.75
2023-07-25T05:01:30.146Z,99301.69
2023-07-25T05:03:58.365Z,99295.41
2023-07-25T05:06:26.353Z,99292.66
2023-07-25T05:08:54.558Z,99295.72
2023-07-25T05:11:24.011Z,99300.06
2023-07-25T05:13:51.988Z,99296.03
2023-07-25T05:16:20.488Z,99295.31
2023-07-25T05:18:48.998Z,99304.53
2023-07-25T05:21:16.984Z,99300.97
2023-07-25T05:23:44.920Z,99306.81
2023-07-25T05:26:12.783Z,99293.22
2023-07-25T05:28:42.328Z,99299.47
2023-07-25T05:31:10.314Z,99302.69
2023-07-25T05:33:38.478Z,99307.88
2023-07-25T05:36:06.710Z,99302.09
2023-07-25T05:38:34.933Z,99299.94
2023-07-25T05:41:02.979Z,99293.72
2023-07-25T05:43:30.988Z,99297.91
2023-07-25T05:46:00.502Z,99301.53
2023-07-25T05:48:28.743Z,99294.25
2023-07-25T05:50:56.681Z,99302.75
2023-07-25T05:53:24.698Z,99296.56
2023-07-25T05:55:52.627Z,99297.97
2023-07-25T05:58:20.959Z,99299.97
2023-07-25T06:00:49.937Z,99296.59
2023-07-25T06:03:19.425Z,99299.72
2023-07-25T06:05:47.705Z,99285.06
2023-07-25T06:08:15.849Z,99281.75
2023-07-25T06:10:44.721Z,99294.03
2023-07-25T06:13:12.813Z,99293.31
2023-07-25T06:15:40.829Z,99285.88
2023-07-25T06:18:08.858Z,99287.44
2023-07-25T06:20:38.131Z,99279.25
2023-07-25T06:23:06.280Z,99273.75
2023-07-25T06:25:34.251Z,99273.69
2023-07-25T06:28:02.213Z,99269.31
2023-07-25T06:30:30.594Z,99264.38
2023-07-25T06:32:58.676Z,99254.34
2023-07-25T06:35:26.678Z,99262.34
2023-07-25T06:37:56.058Z,99257.50
2023-07-25T06:40:24.354Z,99249.28
2023-07-25T06:42:52.335Z,99251.63
2023-07-25T06:45:20.344Z,99251.34
2023-07-25T06:47:48.455Z,99255.88
2023-07-25T06:50:16.522Z,99253.81
2023-07-25T06:52:44.548Z,99244.03
2023-07-25T06:55:13.940Z,99238.72
2023-07-25T06:57:41.977Z,99241.75
2023-07-25T07:00:11.615Z,99238.38
2023-07-25T07:02:39.632Z,99231.69
2023-07-25T07:05:23.832Z,99231.69
2023-07-25T07:07:55.879Z,99227.38
2023-07-25T07:10:25.272Z,99230.88
2023-07-25T07:12:54.861Z,99226.25
2023-07-25T07:15:25.643Z,99231.09
2023-07-25T07:17:54.287Z,99226.97
2023-07-25T07:20:22.819Z,99228.84
2023-07-25T07:22:50.878Z,99222.56
2023-07-25T07:25:18.888Z,99209.84
2023-07-25T07:27:48.370Z,99219.41
2023-07-25T07:30:16.373Z,99213.13
2023-07-25T07:32:44.467Z,99210.56
2023-07-25T07:35:12.520Z,99204.31
2023-07-25T07:37:40.596Z,99199.22
2023-07-25T07:40:09.806Z,99195.81
2023-07-25T07:42:37.829Z,99197.09
2023-07-25T07:45:09.360Z,99189.81
2023-07-25T07:47:37.550Z,99180.97
2023-07-25T07:50:06.142Z,99180.47
2023-07-25T07:52:42.449Z,99173.72
2023-07-25T07:55:13.207Z,99169.94
2023-07-25T07:57:42.921Z,99166.13
2023-07-25T08:00:14.941Z,99168.06
2023-07-25T08:02:43.806Z,99179.69
2023-07-25T08:05:13.202Z,99171.09
2023-07-25T08:07:41.860Z,99165.22
2023-07-25T08:10:10.649Z,99149.38
2023-07-25T08:12:39.068Z,99149.09
2023-07-25T08:15:08.437Z,99140.78
2023-07-25T08:17:38.043Z,99148.47
2023-07-25T08:20:07.586Z,99145.59
2023-07-25T08:22:35.591Z,99138.63
2023-07-25T08:25:03.947Z,99138.06
2023-07-25T08:27:31.923Z,99139.16
2023-07-25T08:30:00.190Z,99132.44
2023-07-25T08:32:28.282Z,99114.09
2023-07-25T08:34:57.785Z,99121.41
2023-07-25T08:37:26.381Z,99109.53
2023-07-25T08:39:54.460Z,99119.56
2023-07-25T08:42:26.355Z,99119.31
2023-07-25T08:44:55.861Z,99115.78
2023-07-25T08:47:28.430Z,99114.69
2023-07-25T08:49:59.564Z,99106.59
2023-07-25T08:52:30.189Z,99080.94
2023-07-25T08:54:58.780Z,99089.88
2023-07-25T08:57:28.524Z,99090.13
2023-07-25T08:59:56.886Z,99090.41
2023-07-25T09:02:25.208Z,99086.06
2023-07-25T09:04:54.876Z,99092.03
2023-07-25T09:07:24.186Z,99091.47
2023-07-25T09:09:52.335Z,99088.78
2023-07-25T09:12:20.487Z,99078.25
2023-07-25T09:14:48.559Z,99072.06
2023-07-25T09:17:16.563Z,99077.44
2023-07-25T09:19:44.589Z,99077.94
2023-07-25T09:25:10.827Z,99069.94
2023-07-25T09:27:38.982Z,99065.94
2023-07-25T09:30:14.610Z,99063.72
2023-07-25T09:32:46.972Z,99060.72
2023-07-25T09:35:15.293Z,99052.88
2023-07-25T09:37:43.288Z,99051.72
2023-07-25T09:40:13.727Z,99052.66
2023-07-25T09:42:42.727Z,99054.03
2023-07-25T09:45:11.738Z,99056.41
2023-07-25T09:47:40.533Z,99051.56
2023-07-25T09:50:09.277Z,99053.69
2023-07-25T09:52:41.746Z,99033.31
2023-07-25T09:55:10.947Z,99049.06
2023-07-25T09:57:41.122Z,99045.47
2023-07-25T10:00:10.746Z,99039.41
2023-07-25T10:02:39.623Z,99037.56
2023-07-25T10:05:09.558Z,99043.22
2023-07-25T10:07:39.256Z,99037.19
2023-07-25T10:10:08.888Z,99028.31
2023-07-25T10:12:36.858Z,99008.84
2023-07-25T10:15:07.612Z,99022.44
2023-07-25T10:17:35.866Z,99023.03
2023-07-25T10:20:09.507Z,99017.88
2023-07-25T10:22:40.727Z,99017.47
2023-07-25T10:25:11.382Z,99007.59
2023-07-25T10:27:39.551Z,99007.47
2023-07-25T10:30:24.264Z,99007.56
2023-07-25T10:32:53.920Z,99003.25
2023-07-25T10:35:43.622Z,98984.78
2023-07-25T10:38:12.907Z,98990.88
2023-07-25T10:40:58.517Z,98988.31
2023-07-25T10:43:31.073Z,98982.38
2023-07-25T10:46:03.270Z,98973.16
2023-07-25T10:48:37.050Z,98970.56
2023-07-25T10:51:09.764Z,98964.03
2023-07-25T10:53:38.081Z,98961.47
2023-07-25T10:56:16.596Z,98951.13
2023-07-25T10:59:06.770Z,98943.94
2023-07-25T11:01:45.549Z,98951.19
2023-07-25T11:04:28.129Z,98936.19
2023-07-25T11:06:58.026Z,98904.91
2023-07-25T11:09:27.193Z,98921.53
2023-07-25T11:11:56.188Z,98910.97
2023-07-25T11:14:24.491Z,98921.28
2023-07-25T11:16:56.159Z,98910.75
2023-07-25T11:19:28.408Z,98902.94
2023-07-25T11:21:56.636Z,98905.06
2023-07-25T11:24:24.706Z,98898.44
2023-07-25T11:26:52.841Z,98896.44
2023-07-25T11:29:20.949Z,98893.19
2023-07-25T11:31:50.796Z,98882.25
2023-07-25T11:34:21.641Z,98883.50
2023-07-25T11:36:50.053Z,98882.00
2023-07-25T11:39:19.073Z,98880.31
2023-07-25T11:41:48.152Z,98869.19
2023-07-25T11:44:17.962Z,98857.84
2023-07-25T11:46:49.167Z,98847.78
2023-07-25T11:49:28.324Z,98850.47
2023-07-25T11:52:08.376Z,98833.16
2023-07-25T11:54:36.698Z,98834.69
2023-07-25T11:57:07.733Z,98841.50
2023-07-25T11:59:41.389Z,98840.47
2023-07-25T12:02:09.804Z,98832.84
2023-07-25T12:04:44.010Z,98812.59
2023-07-25T12:07:13.469Z,98829.91
2023-07-25T12:09:41.562Z,98823.94
2023-07-25T12:12:13.797Z,98817.47
2023-07-25T12:14:42.433Z,98814.59
2023-07-25T12:17:10.504Z,98806.25
2023-07-25T12:19:38.461Z,98802.84
2023-07-25T12:22:07.229Z,98808.03
2023-07-25T12:24:42.700Z,98797.66
2023-07-25T12:27:18.627Z,98789.00
2023-07-25T12:29:46.654Z,98795.63
2023-07-25T12:32:14.980Z,98783.59
2023-07-25T12:34:42.896Z,98775.91
2023-07-25T12:37:10.848Z,98779.63
2023-07-25T12:39:40.468Z,98771.75
2023-07-25T12:42:10.028Z,98761.31
2023-07-25T12:44:38.220Z,98759.56
2023-07-25T12:47:06.833Z,98763.91
2023-07-25T12:49:35.063Z,98754.25
2023-07-25T12:52:03.085Z,98746.19
2023-07-25T12:54:30.980Z,98749.84
2023-07-25T12:56:59.400Z,98747.16
2023-07-25T12:59:28.802Z,98738.16
2023-07-25T13:01:56.960Z,98733.84
2023-07-25T13:04:25.073Z,98732.53
2023-07-25T13:06:53.513Z,98728.84
2023-07-25T13:09:21.549Z,98731.09
2023-07-25T13:11:49.459Z,98722.78
2023-07-25T13:14:17.452Z,98723.63
2023-07-25T13:16:46.831Z,98718.63
2023-07-25T13:19:15.027Z,98714.75
2023-07-25T13:21:43.011Z,98706.84
2023-07-25T13:24:10.949Z,98698.25
2023-07-25T13:26:39.048Z,98704.25
2023-07-25T13:29:07.033Z,98692.69
2023-07-25T13:31:35.700Z,98694.13
2023-07-25T13:34:05.127Z,98696.63
2023-07-25T13:36:33.107Z,98671.47
2023-07-25T13:39:01.086Z,98681.78
2023-07-25T13:41:29.419Z,98677.13
2023-07-25T13:43:57.638Z,98671.69
2023-07-25T13:46:25.827Z,98668.94
2023-07-25T13:48:53.905Z,98658.34
2023-07-25T13:51:23.329Z,98653.56
2023-07-25T13:53:51.305Z,98618.22
2023-07-25T13:56:19.306Z,98649.34
2023-07-25T13:58:47.991Z,98646.72
2023-07-25T14:01:16.017Z,98631.69
2023-07-25T14:03:44.021Z,98636.13
2023-07-25T14:06:11.996Z,98628.75
2023-07-25T14:08:41.520Z,98624.13
2023-07-25T14:11:09.547Z,98620.16
2023-07-25T14:13:37.513Z,98621.31
2023-07-25T14:16:05.989Z,98621.31
2023-07-25T14:18:34.051Z,98618.16
2023-07-25T14:21:02.048Z,98609.03
2023-07-25T14:23:30.143Z,98615.19
2023-07-25T14:25:59.470Z,98616.56
2023-07-25T14:28:27.547Z,98614.59
2023-07-25T14:30:55.596Z,98615.28
2023-07-25T14:33:23.645Z,98614.22
2023-07-25T14:35:51.980Z,98608.38
2023-07-25T14:38:20.131Z,98608.91
2023-07-25T14:40:48.356Z,98605.16
2023-07-25T14:43:17.660Z,98604.50
2023-07-25T14:45:45.777Z,98600.28
2023-07-25T14:48:13.822Z,98596.50
2023-07-25T14:50:43.036Z,98588.78
2023-07-25T14:53:10.988Z,98591.88
2023-07-25T14:55:39.029Z,98588.56
2023-07-25T14:58:07.013Z,98574.28
2023-07-25T15:00:36.526Z,98574.13
2023-07-25T15:03:06.058Z,98575.13
2023-07-25T15:05:34.058Z,98577.41
2023-07-25T15:08:01.999Z,98578.16
2023-07-25T15:10:30.076Z,98573.53
2023-07-25T15:12:57.992Z,98571.25
2023-07-25T15:15:26.198Z,98568.44
2023-07-25T15:17:56.587Z,98570.03
2023-07-25T15:20:24.503Z,98569.44
2023-07-25T15:22:52.465Z,98567.28
2023-07-25T15:25:21.649Z,98560.53
2023-07-25T15:27:49.676Z,98557.13
2023-07-25T15:30:18.655Z,98558.72
2023-07-25T15:32:46.684Z,98558.50
2023-07-25T15:35:16.138Z,98563.19
2023-07-25T15:37:44.026Z,98564.56
2023-07-25T15:40:12.698Z,98561.25
2023-07-25T15:42:40.641Z,98564.44
2023-07-25T15:45:09.722Z,98554.41
2023-07-25T15:47:37.714Z,98556.22
2023-07-25T15:50:06.443Z,98549.63
2023-07-25T15:52:36.117Z,98554.88
2023-07-25T15:55:05.217Z,98561.59
2023-07-25T15:57:33.241Z,98551.91
2023-07-25T16:00:01.229Z,98549.84
2023-07-25T16:02:29.252Z,98538.91
2023-07-25T16:04:57.165Z,98547.44
2023-07-25T16:07:25.146Z,98554.41
2023-07-25T16:09:54.610Z,98559.84
2023-07-25T16:12:22.648Z,98545.09
2023-07-25T16:14:51.089Z,98553.75
2023-07-25T16:17:19.129Z,98552.63
2023-07-25T16:19:47.196Z,98556.13
2023-07-25T16:22:15.941Z,98551.78
2023-07-25T16:24:44.196Z,98543.78
2023-07-25T16:27:15.019Z,98547.72
2023-07-25T16:29:43.156Z,98545.69
2023-07-25T16:32:11.651Z,98542.19
2023-07-25T16:34:40.565Z,98554.59
2023-07-25T16:37:08.549Z,98542.78
2023-07-25T16:39:36.490Z,98557.25
2023-07-25T16:42:04.546Z,98552.97
2023-07-25T16:44:33.921Z,98563.16
2023-07-25T16:47:02.008Z,98559.03
2023-07-25T16:49:30.300Z,98570.28
2023-07-25T16:51:58.281Z,98571.00
2023-07-25T16:54:26.728Z,98566.88
2023-07-25T16:56:54.621Z,98574.53
2023-07-25T16:59:22.765Z,98579.69
2023-07-25T17:01:52.227Z,98578.25
2023-07-25T17:04:20.305Z,98579.88
2023-07-25T17:06:48.255Z,98581.06
2023-07-25T17:09:16.400Z,98575.44
2023-07-25T17:11:44.626Z,98575.78
2023-07-25T17:14:12.631Z,98575.00
2023-07-25T17:16:40.718Z,98575.31
2023-07-25T17:19:13.818Z,98577.88
2023-07-25T17:21:42.878Z,98569.81
2023-07-25T17:24:10.830Z,98577.03
2023-07-25T17:26:39.037Z,98577.19
2023-07-25T17:29:07.214Z,98572.69
2023-07-25T17:31:35.731Z,98584.38
2023-07-25T17:34:04.260Z,98579.84
2023-07-25T17:36:33.690Z,98578.78
2023-07-25T17:39:01.678Z,98569.59
2023-07-25T17:41:30.658Z,98581.09
2023-07-25T17:43:58.924Z,98580.47
2023-07-25T17:46:26.885Z,98577.75
2023-07-25T17:48:56.037Z,98576.94
2023-07-25T17:51:24.118Z,98579.28
2023-07-25T17:53:53.494Z,98579.72
2023-07-25T17:56:21.694Z,98583.59
2023-07-25T17:58:49.685Z,98575.09
2023-07-25T18:01:17.971Z,98578.13
2023-07-25T18:03:46.030Z,98570.13
2023-07-25T18:06:15.288Z,98585.78
2023-07-25T18:08:43.254Z,98582.75
2023-07-25T18:11:12.760Z,98579.69
2023-07-25T18:13:40.723Z,98588.75
2023-07-25T18:16:09.027Z,98590.78
2023-07-25T18:18:37.134Z,98589.84
2023-07-25T18:21:06.281Z,98582.22
2023-07-25T18:23:35.869Z,98579.34
2023-07-25T18:26:03.978Z,98573.13
2023-07-25T18:28:33.309Z,98577.44
2023-07-25T18:31:01.208Z,98579.00
2023-07-25T18:33:29.336Z,98581.97
2023-07-25T18:35:57.356Z,98585.19
2023-07-25T18:38:25.426Z,98586.69
2023-07-25T18:40:53.364Z,98590.59
2023-07-25T18:43:26.346Z,98589.66
2023-07-25T18:45:55.738Z,98592.50
2023-07-25T18:48:24.022Z,98596.41
2023-07-25T18:50:53.313Z,98590.97
2023-07-25T18:53:21.303Z,98603.13
2023-07-25T18:55:50.214Z,98584.47
2023-07-25T18:58:18.293Z,98603.44
2023-07-25T19:00:46.261Z,98611.75
2023-07-25T19:03:15.675Z,98612.34
2023-07-25T19:05:43.666Z,98613.56
2023-07-25T19:08:11.673Z,98617.34
2023-07-25T19:10:39.619Z,98611.44
2023-07-25T19:13:07.583Z,98605.47
2023-07-25T19:15:35.695Z,98602.66
2023-07-25T19:18:03.894Z,98596.22
2023-07-25T19:20:33.306Z,98607.69
2023-07-25T19:23:14.999Z,98610.16
2023-07-25T19:25:47.620Z,98609.97
2023-07-25T19:28:15.536Z,98594.28
2023-07-25T19:30:44.794Z,98603.97
2023-07-25T19:33:12.904Z,98609.72
2023-07-25T19:35:42.239Z,98606.78
2023-07-25T19:38:11.767Z,98592.06
2023-07-25T19:40:39.801Z,98594.09
2023-07-25T19:43:07.768Z,98606.94
2023-07-25T19:45:35.680Z,98599.91
2023-07-25T19:48:03.740Z,98598.13
2023-07-25T19:50:31.746Z,98599.31
2023-07-25T19:53:01.172Z,98578.94
2023-07-25T19:55:29.340Z,98600.31
2023-07-25T19:57:57.351Z,98593.06
2023-07-25T20:00:25.378Z,98609.38
2023-07-25T20:02:53.504Z,98609.44
2023-07-25T20:05:21.934Z,98616.56
2023-07-25T20:07:49.925Z,98606.94
2023-07-25T20:10:19.170Z,98600.13
2023-07-25T20:12:47.206Z,98606.22
2023-07-25T20:15:16.194Z,98611.63
2023-07-25T20:17:46.397Z,98605.03
2023-07-25T20:20:14.500Z,98609.66
2023-07-25T20:22:42.559Z,98603.19
2023-07-25T20:25:11.622Z,98600.25
2023-07-25T20:27:41.052Z,98601.41
2023-07-25T20:30:10.349Z,98594.44
2023-07-25T20:32:38.448Z,98613.34
2023-07-25T20:35:07.167Z,98602.06
2023-07-25T20:37:35.167Z,98598.91
2023-07-25T20:40:06.480Z,98601.59
2023-07-25T20:42:35.994Z,98597.25
2023-07-25T20:45:05.856Z,98592.00
2023-07-25T20:47:34.591Z,98589.94
2023-07-25T20:50:05.322Z,98582.34
2023-07-25T20:52:33.403Z,98590.44
2023-07-25T20:55:01.384Z,98593.25
2023-07-25T20:57:29.396Z,98596.38
2023-07-25T20:59:57.678Z,98607.41
2023-07-25T21:02:27.170Z,98611.44
2023-07-25T21:04:55.392Z,98602.28
2023-07-25T21:07:23.659Z,98598.59
2023-07-25T21:09:55.128Z,98604.91
2023-07-25T21:12:23.060Z,98601.34
2023-07-25T21:14:51.222Z,98602.38
2023-07-25T21:17:19.207Z,98609.25
2023-07-25T21:19:48.603Z,98608.00
2023-07-25T21:22:16.729Z,98608.84
2023-07-25T21:24:44.751Z,98612.13
2023-07-25T21:27:15.479Z,98605.66
2023-07-25T21:29:43.636Z,98597.63
2023-07-25T21:32:11.649Z,98594.31
2023-07-25T21:34:39.705Z,98592.66
2023-07-25T21:37:09.353Z,98583.91
2023-07-25T21:39:37.546Z,98586.34
2023-07-25T21:42:06.008Z,98579.34
2023-07-25T21:44:34.044Z,98582.00
2023-07-25T21:47:02.044Z,98584.22
2023-07-25T21:49:30.083Z,98575.56
2023-07-25T21:51:58.150Z,98589.28
2023-07-25T21:54:27.668Z,98589.25
2023-07-25T21:56:55.650Z,98580.94
2023-07-25T21:59:23.720Z,98586.59
2023-07-25T22:01:53.213Z,98597.66
2023-07-25T22:04:21.361Z,98592.28
2023-07-25T22:06:49.300Z,98591.16
2023-07-25T22:09:18.062Z,98602.19
2023-07-25T22:11:47.620Z,98594.38
2023-07-25T22:14:15.686Z,98598.09
2023-07-25T22:16:44.256Z,98596.50
2023-07-25T22:19:12.444Z,98598.09
2023-07-25T22:21:40.627Z,98612.97
2023-07-25T22:24:09.033Z,98602.44
2023-07-25T22:26:37.156Z,98593.00
2023-07-25T22:29:06.494Z,98604.06
2023-07-25T22:31:37.129Z,98610.97
2023-07-25T22:34:05.922Z,98612.31
2023-07-25T22:36:34.076Z,98608.84
2023-07-25T22:39:02.400Z,98592.19
2023-07-25T22:41:30.362Z,98581.72
2023-07-25T22:43:58.278Z,98590.06
2023-07-25T22:46:27.793Z,98588.47
2023-07-25T22:48:55.797Z,98583.09
2023-07-25T22:51:23.935Z,98580.41
2023-07-25T22:53:52.088Z,98585.78
2023-07-25T22:56:20.210Z,98576.63
2023-07-25T22:58:48.503Z,98585.22
2023-07-25T23:01:16.679Z,98587.38
2023-07-25T23:03:46.063Z,98571.78
2023-07-25T23:06:14.253Z,98586.84
2023-07-25T23:08:42.225Z,98587.38
2023-07-25T23:11:11.214Z,98577.41
2023-07-25T23:13:39.198Z,98573.38
2023-07-25T23:16:07.379Z,98572.00
2023-07-25T23:18:35.479Z,98553.88
2023-07-25T23:21:05.018Z,98563.56
2023-07-25T23:23:33.022Z,98560.09
2023-07-25T23:26:05.273Z,98553.38
2023-07-25T23:28:33.623Z,98552.34
2023-07-25T23:31:02.408Z,98518.94
2023-07-25T23:33:30.494Z,98542.63
2023-07-25T23:35:58.510Z,98547.72
2023-07-25T23:38:28.053Z,98538.31
2023-07-25T23:40:56.034Z,98540.75
2023-07-25T23:43:23.999Z,98538.84
2023-07-25T23:45:52.349Z,98523.75
2023-07-25T23:48:20.959Z,98540.19
2023-07-25T23:50:49.204Z,98533.97
2023-07-25T23:53:17.222Z,98530.66
2023-07-25T23:55:46.709Z,98538.81
2023-07-25T23:58:14.728Z,98538.16
